createdAt,value
2017-10-02T00:00:21.762Z,971.87
2017-10-02T00:01:21.738Z,971.85
2017-10-02T00:02:21.732Z,971.88
2017-10-02T00:03:21.727Z,971.85
2017-10-02T00:04:21.821Z,971.83
2017-10-02T00:05:21.719Z,971.81
2017-10-02T00:06:21.811Z,971.8
2017-10-02T00:07:21.705Z,971.81
2017-10-02T00:08:21.702Z,971.82
2017-10-02T00:09:21.694Z,971.84
2017-10-02T00:10:21.689Z,971.85
2017-10-02T00:11:21.683Z,971.84
2017-10-02T00:12:21.697Z,971.88
2017-10-02T00:13:21.772Z,971.82
2017-10-02T00:14:21.667Z,971.83
2017-10-02T00:15:21.661Z,971.85
2017-10-02T00:16:21.656Z,971.81
2017-10-02T00:17:21.650Z,971.78
2017-10-02T00:18:21.645Z,971.76
2017-10-02T00:19:21.639Z,971.77
2017-10-02T00:20:21.733Z,971.78
2017-10-02T00:21:21.629Z,971.78
2017-10-02T00:22:21.623Z,971.75
2017-10-02T00:23:21.618Z,971.75
2017-10-02T00:24:21.611Z,971.74
2017-10-02T00:25:21.607Z,971.72
2017-10-02T00:26:21.700Z,971.72
2017-10-02T00:27:21.594Z,971.69
2017-10-02T00:28:21.591Z,971.74
2017-10-02T00:29:21.685Z,971.73
2017-10-02T00:30:21.580Z,971.76
2017-10-02T00:31:21.675Z,971.74
2017-10-02T00:32:21.668Z,971.75
2017-10-02T00:33:21.563Z,971.77
2017-10-02T00:34:21.558Z,971.78
2017-10-02T00:35:21.550Z,971.81
2017-10-02T00:36:21.546Z,971.76
2017-10-02T00:37:21.541Z,971.79
2017-10-02T00:38:21.535Z,971.82
2017-10-02T00:39:21.529Z,971.78
2017-10-02T00:40:21.524Z,971.82
2017-10-02T00:41:21.517Z,971.8
2017-10-02T00:42:21.513Z,971.78
2017-10-02T00:43:21.507Z,971.79
2017-10-02T00:44:21.502Z,971.79
2017-10-02T00:45:21.495Z,971.82
2017-10-02T00:46:21.492Z,971.81
2017-10-02T00:47:21.485Z,971.86
2017-10-02T00:48:21.480Z,971.8
2017-10-02T00:49:21.474Z,971.83
2017-10-02T00:50:21.468Z,971.79
2017-10-02T00:51:21.463Z,971.84
2017-10-02T00:52:21.459Z,971.78
2017-10-02T00:53:21.452Z,971.74
2017-10-02T00:54:21.446Z,971.77
2017-10-02T00:55:21.441Z,971.73
2017-10-02T00:56:21.436Z,971.72
2017-10-02T00:57:21.430Z,971.72
2017-10-02T00:58:21.424Z,971.7
2017-10-02T00:59:21.419Z,971.76
2017-10-02T01:00:21.413Z,971.79
2017-10-02T01:01:21.409Z,971.79
2017-10-02T01:02:21.401Z,971.81
2017-10-02T01:03:21.396Z,971.77
2017-10-02T01:04:21.389Z,971.77
2017-10-02T01:05:21.385Z,971.73
2017-10-02T01:06:21.379Z,971.72
2017-10-02T01:07:21.374Z,971.72
2017-10-02T01:08:21.368Z,971.71
2017-10-02T01:09:21.363Z,971.72
2017-10-02T01:10:21.356Z,971.72
2017-10-02T01:11:21.350Z,971.75
2017-10-02T01:12:21.345Z,971.75
2017-10-02T01:13:21.340Z,971.74
2017-10-02T01:14:21.334Z,971.75
2017-10-02T01:15:21.429Z,971.74
2017-10-02T01:16:21.324Z,971.77
2017-10-02T01:17:21.319Z,971.79
2017-10-02T01:18:21.312Z,971.77
2017-10-02T01:19:21.306Z,971.77
2017-10-02T01:20:21.402Z,971.74
2017-10-02T01:21:21.295Z,971.76
2017-10-02T01:22:21.299Z,971.8
2017-10-02T01:23:21.284Z,971.78
2017-10-02T01:24:21.279Z,971.77
2017-10-02T01:25:21.273Z,971.81
2017-10-02T01:26:21.268Z,971.81
2017-10-02T01:27:21.262Z,971.84
2017-10-02T01:28:21.256Z,971.81
2017-10-02T01:29:21.251Z,971.86
2017-10-02T01:30:21.245Z,971.84
2017-10-02T01:31:21.239Z,971.84
2017-10-02T01:32:21.234Z,971.84
2017-10-02T01:33:21.226Z,971.84
2017-10-02T01:34:21.222Z,971.86
2017-10-02T01:35:21.217Z,971.86
2017-10-02T01:36:21.212Z,971.91
2017-10-02T01:37:21.205Z,971.89
2017-10-02T01:38:21.200Z,971.9
2017-10-02T01:39:21.194Z,971.86
2017-10-02T01:40:21.189Z,971.88
2017-10-02T01:41:21.183Z,971.89
2017-10-02T01:42:21.178Z,971.89
2017-10-02T01:43:21.172Z,971.87
2017-10-02T01:44:21.170Z,971.87
2017-10-02T01:45:21.159Z,971.83
2017-10-02T01:46:21.155Z,971.87
2017-10-02T01:47:21.150Z,971.84
2017-10-02T01:48:21.144Z,971.82
2017-10-02T01:49:21.238Z,971.78
2017-10-02T01:50:21.154Z,971.75
2017-10-02T01:51:21.128Z,971.77
2017-10-02T01:52:21.121Z,971.77
2017-10-02T01:53:21.116Z,971.74
2017-10-02T01:54:21.110Z,971.69
2017-10-02T01:55:21.104Z,971.66
2017-10-02T01:56:21.099Z,971.67
2017-10-02T01:57:21.095Z,971.64
2017-10-02T01:58:21.087Z,971.68
2017-10-02T01:59:21.082Z,971.69
2017-10-02T02:00:21.176Z,971.66
2017-10-02T02:01:21.071Z,971.7
2017-10-02T02:02:21.066Z,971.68
2017-10-02T02:03:21.060Z,971.67
2017-10-02T02:04:21.055Z,971.66
2017-10-02T02:05:21.049Z,971.64
2017-10-02T02:06:21.044Z,971.65
2017-10-02T02:07:21.038Z,971.65
2017-10-02T02:08:21.032Z,971.64
2017-10-02T02:09:21.027Z,971.63
2017-10-02T02:10:21.021Z,971.59
2017-10-02T02:11:21.016Z,971.61
2017-10-02T02:12:21.011Z,971.59
2017-10-02T02:13:21.004Z,971.63
2017-10-02T02:14:20.998Z,971.61
2017-10-02T02:15:20.992Z,971.65
2017-10-02T02:16:20.987Z,971.6
2017-10-02T02:17:20.981Z,971.61
2017-10-02T02:18:20.976Z,971.59
2017-10-02T02:19:20.970Z,971.59
2017-10-02T02:20:20.964Z,971.59
2017-10-02T02:21:20.959Z,971.59
2017-10-02T02:22:20.954Z,971.59
2017-10-02T02:23:20.948Z,971.6
2017-10-02T02:24:20.942Z,971.58
2017-10-02T02:25:20.936Z,971.58
2017-10-02T02:26:21.031Z,971.53
2017-10-02T02:27:20.925Z,971.46
2017-10-02T02:28:20.920Z,971.5
2017-10-02T02:29:20.913Z,971.47
2017-10-02T02:30:20.909Z,971.43
2017-10-02T02:31:20.903Z,971.42
2017-10-02T02:32:20.897Z,971.4
2017-10-02T02:33:20.892Z,971.4
2017-10-02T02:34:20.885Z,971.39
2017-10-02T02:35:20.881Z,971.34
2017-10-02T02:36:20.874Z,971.41
2017-10-02T02:37:20.870Z,971.34
2017-10-02T02:38:20.864Z,971.37
2017-10-02T02:39:20.857Z,971.32
2017-10-02T02:40:20.852Z,971.35
2017-10-02T02:41:20.847Z,971.33
2017-10-02T02:42:20.841Z,971.33
2017-10-02T02:43:20.833Z,971.29
2017-10-02T02:44:20.829Z,971.33
2017-10-02T02:45:20.823Z,971.3
2017-10-02T02:46:20.816Z,971.31
2017-10-02T02:47:20.912Z,971.28
2017-10-02T02:48:20.806Z,971.27
2017-10-02T02:49:20.801Z,971.33
2017-10-02T02:50:20.796Z,971.27
2017-10-02T02:51:20.789Z,971.32
2017-10-02T02:52:20.783Z,971.26
2017-10-02T02:53:20.779Z,971.29
2017-10-02T02:54:20.772Z,971.28
2017-10-02T02:55:20.767Z,971.28
2017-10-02T02:56:20.761Z,971.26
2017-10-02T02:57:20.754Z,971.25
2017-10-02T02:58:20.749Z,971.25
2017-10-02T02:59:20.745Z,971.2
2017-10-02T03:00:20.738Z,971.25
2017-10-02T03:01:20.732Z,971.24
2017-10-02T03:02:20.731Z,971.27
2017-10-02T03:03:20.721Z,971.23
2017-10-02T03:04:20.717Z,971.26
2017-10-02T03:05:20.710Z,971.26
2017-10-02T03:06:20.703Z,971.27
2017-10-02T03:07:20.697Z,971.32
2017-10-02T03:08:20.695Z,971.28
2017-10-02T03:09:20.686Z,971.33
2017-10-02T03:10:20.680Z,971.31
2017-10-02T03:11:20.675Z,971.23
2017-10-02T03:12:20.669Z,971.26
2017-10-02T03:13:20.664Z,971.28
2017-10-02T03:14:20.759Z,971.31
2017-10-02T03:15:20.652Z,971.33
2017-10-02T03:16:20.647Z,971.33
2017-10-02T03:17:20.641Z,971.34
2017-10-02T03:18:20.636Z,971.37
2017-10-02T03:19:20.630Z,971.37
2017-10-02T03:20:20.623Z,971.35
2017-10-02T03:21:20.619Z,971.34
2017-10-02T03:22:20.615Z,971.31
2017-10-02T03:23:20.607Z,971.32
2017-10-02T03:24:20.601Z,971.32
2017-10-02T03:25:20.595Z,971.39
2017-10-02T03:26:20.701Z,971.38
2017-10-02T03:27:20.584Z,971.36
2017-10-02T03:28:20.586Z,971.39
2017-10-02T03:29:20.573Z,971.4
2017-10-02T03:30:20.567Z,971.4
2017-10-02T03:31:20.566Z,971.43
2017-10-02T03:32:20.557Z,971.47
2017-10-02T03:33:20.550Z,971.43
2017-10-02T03:34:20.545Z,971.46
2017-10-02T03:35:20.538Z,971.48
2017-10-02T03:36:20.532Z,971.48
2017-10-02T03:37:20.528Z,971.47
2017-10-02T03:38:20.523Z,971.44
2017-10-02T03:39:20.617Z,971.43
2017-10-02T03:40:20.512Z,971.43
2017-10-02T03:41:20.504Z,971.4
2017-10-02T03:42:20.500Z,971.37
2017-10-02T03:43:20.493Z,971.39
2017-10-02T03:44:20.488Z,971.36
2017-10-02T03:45:20.483Z,971.37
2017-10-02T03:46:20.576Z,971.37
2017-10-02T03:47:20.472Z,971.36
2017-10-02T03:48:20.465Z,971.36
2017-10-02T03:49:20.458Z,971.38
2017-10-02T03:50:20.453Z,971.36
2017-10-02T03:51:20.450Z,971.37
2017-10-02T03:52:20.442Z,971.38
2017-10-02T03:53:20.436Z,971.36
2017-10-02T03:54:20.431Z,971.38
2017-10-02T03:55:20.425Z,971.41
2017-10-02T03:56:20.422Z,971.41
2017-10-02T03:57:20.413Z,971.34
2017-10-02T03:58:20.409Z,971.37
2017-10-02T03:59:20.403Z,971.34
2017-10-02T04:00:20.400Z,971.34
2017-10-02T04:01:20.391Z,971.36
2017-10-02T04:02:20.386Z,971.34
2017-10-02T04:03:20.379Z,971.31
2017-10-02T04:04:20.374Z,971.34
2017-10-02T04:05:20.368Z,971.36
2017-10-02T04:06:20.363Z,971.33
2017-10-02T04:07:20.357Z,971.28
2017-10-02T04:08:20.351Z,971.32
2017-10-02T04:09:20.346Z,971.3
2017-10-02T04:10:20.340Z,971.28
2017-10-02T04:11:20.337Z,971.3
2017-10-02T04:12:20.428Z,971.32
2017-10-02T04:13:20.322Z,971.33
2017-10-02T04:14:20.316Z,971.34
2017-10-02T04:15:20.311Z,971.36
2017-10-02T04:16:20.304Z,971.36
2017-10-02T04:17:20.399Z,971.32
2017-10-02T04:18:20.294Z,971.31
2017-10-02T04:19:20.289Z,971.32
2017-10-02T04:20:20.282Z,971.3
2017-10-02T04:21:20.276Z,971.28
2017-10-02T04:22:20.271Z,971.3
2017-10-02T04:23:20.266Z,971.3
2017-10-02T04:24:20.259Z,971.29
2017-10-02T04:25:20.252Z,971.26
2017-10-02T04:26:20.247Z,971.31
2017-10-02T04:27:20.342Z,971.26
2017-10-02T04:28:20.237Z,971.26
2017-10-02T04:29:20.229Z,971.27
2017-10-02T04:30:20.225Z,971.2
2017-10-02T04:31:20.220Z,971.24
2017-10-02T04:32:20.214Z,971.24
2017-10-02T04:33:20.207Z,971.25
2017-10-02T04:34:20.202Z,971.26
2017-10-02T04:35:20.197Z,971.27
2017-10-02T04:36:20.190Z,971.26
2017-10-02T04:37:20.186Z,971.29
2017-10-02T04:38:20.180Z,971.28
2017-10-02T04:39:20.173Z,971.27
2017-10-02T04:40:20.167Z,971.33
2017-10-02T04:41:20.163Z,971.35
2017-10-02T04:42:20.157Z,971.37
2017-10-02T04:43:20.150Z,971.36
2017-10-02T04:44:20.145Z,971.37
2017-10-02T04:45:20.139Z,971.41
2017-10-02T04:46:20.154Z,971.43
2017-10-02T04:47:20.126Z,971.41
2017-10-02T04:48:20.122Z,971.4
2017-10-02T04:49:20.116Z,971.4
2017-10-02T04:50:20.110Z,971.44
2017-10-02T04:51:20.103Z,971.45
2017-10-02T04:52:20.097Z,971.47
2017-10-02T04:53:20.193Z,971.45
2017-10-02T04:54:20.086Z,971.49
2017-10-02T04:55:20.081Z,971.45
2017-10-02T04:56:20.076Z,971.52
2017-10-02T04:57:20.071Z,971.48
2017-10-02T04:58:20.064Z,971.46
2017-10-02T04:59:20.057Z,971.48
2017-10-02T05:00:20.053Z,971.48
2017-10-02T05:01:20.048Z,971.49
2017-10-02T05:02:20.041Z,971.48
2017-10-02T05:03:20.036Z,971.47
2017-10-02T05:04:20.130Z,971.48
2017-10-02T05:05:20.024Z,971.47
2017-10-02T05:06:20.019Z,971.45
2017-10-02T05:07:20.013Z,971.49
2017-10-02T05:08:20.014Z,971.52
2017-10-02T05:09:20.001Z,971.51
2017-10-02T05:10:19.996Z,971.49
2017-10-02T05:11:19.990Z,971.49
2017-10-02T05:12:19.984Z,971.49
2017-10-02T05:13:19.979Z,971.45
2017-10-02T05:14:20.074Z,971.46
2017-10-02T05:15:19.967Z,971.43
2017-10-02T05:16:19.966Z,971.47
2017-10-02T05:17:19.956Z,971.42
2017-10-02T05:18:19.951Z,971.47
2017-10-02T05:19:19.944Z,971.48
2017-10-02T05:20:19.940Z,971.45
2017-10-02T05:21:19.934Z,971.46
2017-10-02T05:22:19.927Z,971.48
2017-10-02T05:23:19.921Z,971.47
2017-10-02T05:24:19.915Z,971.53
2017-10-02T05:25:20.012Z,971.52
2017-10-02T05:26:19.905Z,971.5
2017-10-02T05:27:19.898Z,971.56
2017-10-02T05:28:19.891Z,971.57
2017-10-02T05:29:19.890Z,971.56
2017-10-02T05:30:19.881Z,971.57
2017-10-02T05:31:19.874Z,971.6
2017-10-02T05:32:19.869Z,971.62
2017-10-02T05:33:19.964Z,971.56
2017-10-02T05:34:19.857Z,971.6
2017-10-02T05:35:19.852Z,971.56
2017-10-02T05:36:19.846Z,971.59
2017-10-02T05:37:19.841Z,971.59
2017-10-02T05:38:19.835Z,971.65
2017-10-02T05:39:19.829Z,971.63
2017-10-02T05:40:19.824Z,971.64
2017-10-02T05:41:19.820Z,971.65
2017-10-02T05:42:19.812Z,971.65
2017-10-02T05:43:19.807Z,971.67
2017-10-02T05:44:19.901Z,971.65
2017-10-02T05:45:19.894Z,971.63
2017-10-02T05:46:19.788Z,971.65
2017-10-02T05:47:19.783Z,971.66
2017-10-02T05:48:19.779Z,971.68
2017-10-02T05:49:19.872Z,971.7
2017-10-02T05:50:19.766Z,971.71
2017-10-02T05:51:19.761Z,971.7
2017-10-02T05:52:19.755Z,971.72
2017-10-02T05:53:19.748Z,971.67
2017-10-02T05:54:19.743Z,971.64
2017-10-02T05:55:19.737Z,971.66
2017-10-02T05:56:19.731Z,971.63
2017-10-02T05:57:19.726Z,971.58
2017-10-02T05:58:19.720Z,971.62
2017-10-02T05:59:19.814Z,971.61
2017-10-02T06:00:19.708Z,971.58
2017-10-02T06:01:19.702Z,971.59
2017-10-02T06:02:19.697Z,971.62
2017-10-02T06:03:19.690Z,971.62
2017-10-02T06:04:19.685Z,971.55
2017-10-02T06:05:19.678Z,971.6
2017-10-02T06:06:19.674Z,971.53
2017-10-02T06:07:19.667Z,971.56
2017-10-02T06:08:19.662Z,971.56
2017-10-02T06:09:19.658Z,971.53
2017-10-02T06:10:19.651Z,971.57
2017-10-02T06:11:19.645Z,971.56
2017-10-02T06:12:19.638Z,971.53
2017-10-02T06:13:19.633Z,971.51
2017-10-02T06:14:19.628Z,971.51
2017-10-02T06:15:19.623Z,971.55
2017-10-02T06:16:19.616Z,971.58
2017-10-02T06:17:19.712Z,971.58
2017-10-02T06:18:19.603Z,971.6
2017-10-02T06:19:19.599Z,971.66
2017-10-02T06:20:19.594Z,971.72
2017-10-02T06:21:19.588Z,971.7
2017-10-02T06:22:19.581Z,971.72
2017-10-02T06:23:19.575Z,971.72
2017-10-02T06:24:19.571Z,971.73
2017-10-02T06:25:19.565Z,971.7
2017-10-02T06:26:19.559Z,971.71
2017-10-02T06:27:19.552Z,971.74
2017-10-02T06:28:19.548Z,971.73
2017-10-02T06:29:19.541Z,971.76
2017-10-02T06:30:19.635Z,971.73
2017-10-02T06:31:19.530Z,971.73
2017-10-02T06:32:19.524Z,971.74
2017-10-02T06:33:19.519Z,971.73
2017-10-02T06:34:19.614Z,971.77
2017-10-02T06:35:19.509Z,971.77
2017-10-02T06:36:19.602Z,971.81
2017-10-02T06:37:19.496Z,971.82
2017-10-02T06:38:19.490Z,971.81
2017-10-02T06:39:19.485Z,971.83
2017-10-02T06:40:19.479Z,971.8
2017-10-02T06:41:19.473Z,971.82
2017-10-02T06:42:19.467Z,971.82
2017-10-02T06:43:19.463Z,971.82
2017-10-02T06:44:19.457Z,971.8
2017-10-02T06:45:19.454Z,971.83
2017-10-02T06:46:19.445Z,971.85
2017-10-02T06:47:19.441Z,971.84
2017-10-02T06:48:19.436Z,971.83
2017-10-02T06:49:19.430Z,971.83
2017-10-02T06:50:19.524Z,971.82
2017-10-02T06:51:19.417Z,971.79
2017-10-02T06:52:19.513Z,971.8
2017-10-02T06:53:19.407Z,971.8
2017-10-02T06:54:19.402Z,971.78
2017-10-02T06:55:19.396Z,971.81
2017-10-02T06:56:19.490Z,971.8
2017-10-02T06:57:19.384Z,971.83
2017-10-02T06:58:19.377Z,971.83
2017-10-02T06:59:19.373Z,971.86
2017-10-02T07:00:19.467Z,971.82
2017-10-02T07:01:19.362Z,971.82
2017-10-02T07:02:19.355Z,971.84
2017-10-02T07:03:19.351Z,971.86
2017-10-02T07:04:19.346Z,971.85
2017-10-02T07:05:19.339Z,971.85
2017-10-02T07:06:19.334Z,971.85
2017-10-02T07:07:19.428Z,971.86
2017-10-02T07:08:19.323Z,971.86
2017-10-02T07:09:19.317Z,971.81
2017-10-02T07:10:19.311Z,971.81
2017-10-02T07:11:19.306Z,971.78
2017-10-02T07:12:19.300Z,971.78
2017-10-02T07:13:19.293Z,971.82
2017-10-02T07:14:19.288Z,971.79
2017-10-02T07:15:19.284Z,971.8
2017-10-02T07:16:19.278Z,971.8
2017-10-02T07:17:19.271Z,971.8
2017-10-02T07:18:19.267Z,971.79
2017-10-02T07:19:19.261Z,971.73
2017-10-02T07:20:19.356Z,971.76
2017-10-02T07:21:19.249Z,971.74
2017-10-02T07:22:19.242Z,971.75
2017-10-02T07:23:19.243Z,971.78
2017-10-02T07:24:19.230Z,971.78
2017-10-02T07:25:19.226Z,971.8
2017-10-02T07:26:19.221Z,971.79
2017-10-02T07:27:19.217Z,971.82
2017-10-02T07:28:19.209Z,971.81
2017-10-02T07:29:19.204Z,971.8
2017-10-02T07:30:19.197Z,971.83
2017-10-02T07:31:19.193Z,971.8
2017-10-02T07:32:19.186Z,971.86
2017-10-02T07:33:19.180Z,971.8
2017-10-02T07:34:19.175Z,971.75
2017-10-02T07:35:19.174Z,971.8
2017-10-02T07:36:19.165Z,971.81
2017-10-02T07:37:19.159Z,971.84
2017-10-02T07:38:19.154Z,971.88
2017-10-02T07:39:19.148Z,971.87
2017-10-02T07:40:19.143Z,971.84
2017-10-02T07:41:19.137Z,971.86
2017-10-02T07:42:19.131Z,971.88
2017-10-02T07:43:19.227Z,971.91
2017-10-02T07:44:19.121Z,971.89
2017-10-02T07:45:19.115Z,971.92
2017-10-02T07:46:19.109Z,971.87
2017-10-02T07:47:19.105Z,971.86
2017-10-02T07:48:19.099Z,971.94
2017-10-02T07:49:19.092Z,971.91
2017-10-02T07:50:19.087Z,971.88
2017-10-02T07:51:19.081Z,971.84
2017-10-02T07:52:19.077Z,971.85
2017-10-02T07:53:19.070Z,971.9
2017-10-02T07:54:19.066Z,971.88
2017-10-02T07:55:19.060Z,971.88
2017-10-02T07:56:19.054Z,971.89
2017-10-02T07:57:19.048Z,971.93
2017-10-02T07:58:19.044Z,971.92
2017-10-02T07:59:19.038Z,971.94
2017-10-02T08:00:19.032Z,971.91
2017-10-02T08:01:19.027Z,971.92
2017-10-02T08:02:19.022Z,971.95
2017-10-02T08:03:19.018Z,971.91
2017-10-02T08:04:19.011Z,971.9
2017-10-02T08:05:19.005Z,971.88
2017-10-02T08:06:19.100Z,971.85
2017-10-02T08:07:18.993Z,971.87
2017-10-02T08:08:18.987Z,971.88
2017-10-02T08:09:18.982Z,971.88
2017-10-02T08:10:18.978Z,971.94
2017-10-02T08:11:18.972Z,971.92
2017-10-02T08:12:18.968Z,971.93
2017-10-02T08:13:18.960Z,971.94
2017-10-02T08:14:18.956Z,971.91
2017-10-02T08:15:18.949Z,971.91
2017-10-02T08:16:18.944Z,971.93
2017-10-02T08:17:19.039Z,971.97
2017-10-02T08:18:18.934Z,971.98
2017-10-02T08:19:18.928Z,971.96
2017-10-02T08:20:18.923Z,971.96
2017-10-02T08:21:18.917Z,971.97
2017-10-02T08:22:19.013Z,971.97
2017-10-02T08:23:19.006Z,971.96
2017-10-02T08:24:18.902Z,971.95
2017-10-02T08:25:18.896Z,971.96
2017-10-02T08:26:18.889Z,972.03
2017-10-02T08:27:18.884Z,971.99
2017-10-02T08:28:18.880Z,972.04
2017-10-02T08:29:18.874Z,972.01
2017-10-02T08:30:18.878Z,972.04
2017-10-02T08:31:18.862Z,972.06
2017-10-02T08:32:18.858Z,972.01
2017-10-02T08:33:18.850Z,972.04
2017-10-02T08:34:18.846Z,972.08
2017-10-02T08:35:18.840Z,972.08
2017-10-02T08:36:18.836Z,972.1
2017-10-02T08:37:18.829Z,972.06
2017-10-02T08:38:18.825Z,972.08
2017-10-02T08:39:18.819Z,972.08
2017-10-02T08:40:18.813Z,972.06
2017-10-02T08:41:18.809Z,972.04
2017-10-02T08:42:18.803Z,972.03
2017-10-02T08:43:18.797Z,972.01
2017-10-02T08:44:18.791Z,972.01
2017-10-02T08:45:18.786Z,971.98
2017-10-02T08:46:18.782Z,971.98
2017-10-02T08:47:18.776Z,971.97
2017-10-02T08:48:18.770Z,971.95
2017-10-02T08:49:18.764Z,972
2017-10-02T08:50:18.759Z,971.99
2017-10-02T08:51:18.754Z,971.96
2017-10-02T08:52:18.748Z,971.94
2017-10-02T08:53:18.743Z,971.95
2017-10-02T08:54:18.737Z,971.93
2017-10-02T08:55:18.731Z,971.92
2017-10-02T08:56:18.727Z,971.93
2017-10-02T08:57:18.721Z,971.88
2017-10-02T08:58:18.815Z,971.84
2017-10-02T08:59:18.709Z,971.83
2017-10-02T09:00:18.704Z,971.84
2017-10-02T09:01:18.700Z,971.81
2017-10-02T09:02:18.694Z,971.82
2017-10-02T09:03:18.789Z,971.81
2017-10-02T09:04:18.684Z,971.81
2017-10-02T09:05:18.677Z,971.79
2017-10-02T09:06:18.672Z,971.79
2017-10-02T09:07:18.666Z,971.79
2017-10-02T09:08:18.661Z,971.82
2017-10-02T09:09:18.656Z,971.84
2017-10-02T09:10:18.751Z,971.82
2017-10-02T09:11:18.646Z,971.8
2017-10-02T09:12:18.639Z,971.85
2017-10-02T09:13:18.637Z,971.84
2017-10-02T09:14:18.628Z,971.88
2017-10-02T09:15:18.724Z,971.83
2017-10-02T09:16:18.617Z,971.85
2017-10-02T09:17:18.611Z,971.85
2017-10-02T09:18:18.606Z,971.82
2017-10-02T09:19:18.600Z,971.83
2017-10-02T09:20:18.596Z,971.8
2017-10-02T09:21:18.589Z,971.76
2017-10-02T09:22:18.585Z,971.76
2017-10-02T09:23:18.680Z,971.74
2017-10-02T09:24:18.575Z,971.74
2017-10-02T09:25:18.568Z,971.71
2017-10-02T09:26:18.563Z,971.69
2017-10-02T09:27:18.558Z,971.75
2017-10-02T09:28:18.654Z,971.76
2017-10-02T09:29:18.548Z,971.72
2017-10-02T09:30:18.641Z,971.73
2017-10-02T09:31:18.537Z,971.75
2017-10-02T09:32:18.532Z,971.7
2017-10-02T09:33:18.526Z,971.7
2017-10-02T09:34:18.520Z,971.7
2017-10-02T09:35:18.515Z,971.69
2017-10-02T09:36:18.510Z,971.69
2017-10-02T09:37:18.504Z,971.75
2017-10-02T09:38:18.499Z,971.7
2017-10-02T09:39:18.493Z,971.7
2017-10-02T09:40:18.487Z,971.65
2017-10-02T09:41:18.483Z,971.64
2017-10-02T09:42:18.478Z,971.67
2017-10-02T09:43:18.471Z,971.73
2017-10-02T09:44:18.466Z,971.74
2017-10-02T09:45:18.461Z,971.77
2017-10-02T09:46:18.455Z,971.73
2017-10-02T09:47:18.449Z,971.73
2017-10-02T09:48:18.444Z,971.78
2017-10-02T09:49:18.440Z,971.74
2017-10-02T09:50:18.434Z,971.75
2017-10-02T09:51:18.429Z,971.71
2017-10-02T09:52:18.426Z,971.66
2017-10-02T09:53:18.420Z,971.66
2017-10-02T09:54:18.412Z,971.68
2017-10-02T09:55:18.407Z,971.64
2017-10-02T09:56:18.401Z,971.62
2017-10-02T09:57:18.398Z,971.6
2017-10-02T09:58:18.394Z,971.57
2017-10-02T09:59:18.388Z,971.64
2017-10-02T10:00:18.382Z,971.62
2017-10-02T10:01:18.375Z,971.65
2017-10-02T10:02:18.370Z,971.61
2017-10-02T10:03:18.364Z,971.65
2017-10-02T10:04:18.461Z,971.62
2017-10-02T10:05:18.355Z,971.64
2017-10-02T10:06:18.349Z,971.62
2017-10-02T10:07:18.344Z,971.61
2017-10-02T10:08:18.339Z,971.61
2017-10-02T10:09:18.333Z,971.59
2017-10-02T10:10:18.328Z,971.59
2017-10-02T10:11:18.422Z,971.58
2017-10-02T10:12:18.317Z,971.6
2017-10-02T10:13:18.312Z,971.6
2017-10-02T10:14:18.408Z,971.6
2017-10-02T10:15:18.302Z,971.6
2017-10-02T10:16:18.295Z,971.59
2017-10-02T10:17:18.289Z,971.6
2017-10-02T10:18:18.285Z,971.59
2017-10-02T10:19:18.279Z,971.66
2017-10-02T10:20:18.274Z,971.6
2017-10-02T10:21:18.269Z,971.58
2017-10-02T10:22:18.264Z,971.55
2017-10-02T10:23:18.256Z,971.57
2017-10-02T10:24:18.352Z,971.58
2017-10-02T10:25:18.246Z,971.57
2017-10-02T10:26:18.242Z,971.6
2017-10-02T10:27:18.236Z,971.56
2017-10-02T10:28:18.230Z,971.53
2017-10-02T10:29:18.226Z,971.51
2017-10-02T10:30:18.220Z,971.56
2017-10-02T10:31:18.215Z,971.54
2017-10-02T10:32:18.210Z,971.58
2017-10-02T10:33:18.205Z,971.57
2017-10-02T10:34:18.198Z,971.56
2017-10-02T10:35:18.193Z,971.55
2017-10-02T10:36:18.188Z,971.61
2017-10-02T10:37:18.182Z,971.58
2017-10-02T10:38:18.197Z,971.57
2017-10-02T10:39:18.172Z,971.61
2017-10-02T10:40:18.167Z,971.6
2017-10-02T10:41:18.160Z,971.63
2017-10-02T10:42:18.155Z,971.6
2017-10-02T10:43:18.150Z,971.57
2017-10-02T10:44:18.146Z,971.56
2017-10-02T10:45:18.139Z,971.58
2017-10-02T10:46:18.134Z,971.57
2017-10-02T10:47:18.129Z,971.51
2017-10-02T10:48:18.124Z,971.48
2017-10-02T10:49:18.118Z,971.49
2017-10-02T10:50:18.112Z,971.46
2017-10-02T10:51:18.107Z,971.48
2017-10-02T10:52:18.101Z,971.51
2017-10-02T10:53:18.096Z,971.48
2017-10-02T10:54:18.091Z,971.48
2017-10-02T10:55:18.086Z,971.46
2017-10-02T10:56:18.080Z,971.45
2017-10-02T10:57:18.074Z,971.46
2017-10-02T10:58:18.069Z,971.4
2017-10-02T10:59:18.065Z,971.41
2017-10-02T11:00:18.058Z,971.44
2017-10-02T11:01:18.053Z,971.4
2017-10-02T11:02:18.052Z,971.43
2017-10-02T11:03:18.041Z,971.46
2017-10-02T11:04:18.136Z,971.43
2017-10-02T11:05:18.030Z,971.38
2017-10-02T11:06:18.027Z,971.44
2017-10-02T11:07:18.019Z,971.41
2017-10-02T11:08:18.015Z,971.37
2017-10-02T11:09:18.009Z,971.41
2017-10-02T11:10:18.004Z,971.37
2017-10-02T11:11:17.997Z,971.32
2017-10-02T11:12:17.993Z,971.34
2017-10-02T11:13:17.989Z,971.34
2017-10-02T11:14:17.982Z,971.31
2017-10-02T11:15:17.977Z,971.27
2017-10-02T11:16:17.971Z,971.21
2017-10-02T11:17:17.966Z,971.24
2017-10-02T11:18:17.960Z,971.26
2017-10-02T11:19:17.954Z,971.25
2017-10-02T11:20:17.950Z,971.27
2017-10-02T11:21:17.944Z,971.26
2017-10-02T11:22:17.937Z,971.26
2017-10-02T11:23:17.933Z,971.25
2017-10-02T11:24:17.927Z,971.22
2017-10-02T11:25:17.921Z,971.23
2017-10-02T11:26:17.916Z,971.22
2017-10-02T11:27:17.911Z,971.22
2017-10-02T11:28:17.907Z,971.19
2017-10-02T11:29:17.899Z,971.2
2017-10-02T11:30:17.896Z,971.17
2017-10-02T11:31:17.890Z,971.2
2017-10-02T11:32:17.884Z,971.14
2017-10-02T11:33:17.878Z,971.13
2017-10-02T11:34:17.873Z,971.13
2017-10-02T11:35:17.868Z,971.18
2017-10-02T11:36:17.862Z,971.14
2017-10-02T11:37:17.857Z,971.13
2017-10-02T11:38:17.875Z,971.14
2017-10-02T11:39:17.947Z,971.1
2017-10-02T11:40:17.839Z,971.13
2017-10-02T11:41:17.835Z,971.08
2017-10-02T11:42:17.829Z,971.06
2017-10-02T11:43:17.824Z,971.02
2017-10-02T11:44:17.818Z,971.03
2017-10-02T11:45:17.813Z,971.03
2017-10-02T11:46:17.908Z,971.06
2017-10-02T11:47:17.801Z,971.02
2017-10-02T11:48:17.796Z,970.97
2017-10-02T11:49:17.792Z,970.95
2017-10-02T11:50:17.786Z,970.94
2017-10-02T11:51:17.780Z,970.94
2017-10-02T11:52:17.774Z,970.94
2017-10-02T11:53:17.769Z,970.96
2017-10-02T11:54:17.767Z,970.98
2017-10-02T11:55:17.757Z,970.98
2017-10-02T11:56:17.753Z,971.02
2017-10-02T11:57:17.747Z,971.03
2017-10-02T11:58:17.741Z,971.01
2017-10-02T11:59:17.737Z,971.03
2017-10-02T12:00:17.732Z,971.02
2017-10-02T12:01:17.725Z,971
2017-10-02T12:02:17.719Z,970.99
2017-10-02T12:03:17.715Z,970.97
2017-10-02T12:04:17.708Z,970.97
2017-10-02T12:05:17.702Z,970.98
2017-10-02T12:06:17.698Z,970.99
2017-10-02T12:07:17.693Z,970.96
2017-10-02T12:08:17.687Z,970.97
2017-10-02T12:09:17.682Z,971.04
2017-10-02T12:10:17.677Z,971.01
2017-10-02T12:11:17.671Z,971
2017-10-02T12:12:17.664Z,971.02
2017-10-02T12:13:17.659Z,971.03
2017-10-02T12:14:17.653Z,970.98
2017-10-02T12:15:17.649Z,970.98
2017-10-02T12:16:17.642Z,970.97
2017-10-02T12:17:17.636Z,970.99
2017-10-02T12:18:17.631Z,971.02
2017-10-02T12:19:17.634Z,971.01
2017-10-02T12:20:17.620Z,970.98
2017-10-02T12:21:17.714Z,970.94
2017-10-02T12:22:17.609Z,970.96
2017-10-02T12:23:17.604Z,970.9
2017-10-02T12:24:17.598Z,970.85
2017-10-02T12:25:17.593Z,970.86
2017-10-02T12:26:17.588Z,970.82
2017-10-02T12:27:17.584Z,970.83
2017-10-02T12:28:17.577Z,970.82
2017-10-02T12:29:17.573Z,970.79
2017-10-02T12:30:17.567Z,970.77
2017-10-02T12:31:17.560Z,970.77